Time;durP1;ratioP1;P1;durP2;ratioP2;P2;SDS_P1;SDS_P2;PMS_P1;PMS_P2;Temp;Humidity;BMP_temperature;BMP_pressure;BME280_temperature;BME280_humidity;BME280_pressure;Samples;Min_cycle;Max_cycle;Signal;HPM_P1;HPM_P2
2022/10/23 00:00:18;;;;;;;20.23;12.63;;;;;;;10.89;70.37;97320.94;5068881;28;20199;-79
2022/10/23 00:02:52;;;;;;;18.43;11.93;;;;;;;10.84;70.99;97322.88;5071646;28;20189;-80
2022/10/23 00:05:20;;;;;;;18.33;12.10;;;;;;;10.65;70.94;97296.06;5068478;28;20272;-80
2022/10/23 00:07:52;;;;;;;19.70;12.33;;;;;;;10.87;71.16;97322.75;5067793;28;20692;-79
2022/10/23 00:10:21;;;;;;;19.07;11.53;;;;;;;10.78;71.32;97317.94;5068144;28;20193;-80
2022/10/23 00:12:48;;;;;;;17.70;11.23;;;;;;;10.80;71.19;97329.09;5069036;28;20186;-80
2022/10/23 00:15:19;;;;;;;16.93;11.33;;;;;;;10.83;70.89;97308.25;5069834;28;20958;-79
2022/10/23 00:17:46;;;;;;;20.70;11.20;;;;;;;10.91;70.87;97313.09;5068369;28;20224;-79
2022/10/23 00:20:15;;;;;;;14.17;9.93;;;;;;;10.98;70.57;97320.56;5069225;28;20213;-79
2022/10/23 00:22:41;;;;;;;20.07;11.63;;;;;;;11.12;70.34;97318.22;5067465;28;20190;-79
2022/10/23 00:25:09;;;;;;;16.97;10.60;;;;;;;11.23;70.37;97313.38;5069136;28;20630;-79
2022/10/23 00:27:38;;;;;;;15.90;10.67;;;;;;;11.25;70.24;97310.75;5068986;28;20196;-79
2022/10/23 00:30:05;;;;;;;18.50;9.97;;;;;;;11.41;69.50;97304.81;5068411;28;20308;-77
2022/10/23 00:32:32;;;;;;;18.73;10.93;;;;;;;11.34;69.57;97293.00;5068049;28;20199;-77
2022/10/23 00:34:59;;;;;;;13.63;10.40;;;;;;;11.41;69.17;97293.59;5051158;28;20225;-77
2022/10/23 00:37:28;;;;;;;16.60;10.77;;;;;;;11.57;69.22;97297.16;5069350;28;20680;-79
2022/10/23 00:39:56;;;;;;;17.13;10.90;;;;;;;11.29;68.99;97269.03;5068519;28;20188;-78
2022/10/23 00:42:23;;;;;;;16.77;11.20;;;;;;;11.30;69.29;97265.53;5068681;28;20186;-79
2022/10/23 00:44:50;;;;;;;15.40;10.50;;;;;;;11.61;68.71;97301.28;5067362;28;20224;-80
2022/10/23 00:47:17;;;;;;;19.00;11.10;;;;;;;11.70;68.33;97294.88;5050336;28;20560;-79
2022/10/23 00:49:44;;;;;;;17.03;10.60;;;;;;;11.45;68.47;97264.84;5068779;28;20187;-79
2022/10/23 00:52:13;;;;;;;17.53;11.10;;;;;;;11.67;68.82;97295.84;5067649;28;20193;-80
2022/10/23 00:54:42;;;;;;;14.93;10.80;;;;;;;11.72;68.25;97293.06;5067635;28;20573;-80
2022/10/23 00:57:14;;;;;;;18.30;10.70;;;;;;;11.70;68.15;97300.06;5065159;28;20832;-79
2022/10/23 00:59:42;;;;;;;17.30;11.17;;;;;;;11.69;68.45;97288.00;5069398;28;20257;-79
2022/10/23 01:02:09;;;;;;;28.70;15.70;;;;;;;11.83;67.84;97306.38;5076709;28;20198;-80
2022/10/23 01:04:36;;;;;;;32.43;18.00;;;;;;;11.84;67.92;97310.66;5066307;28;20657;-79
2022/10/23 01:07:34;;;;;;;20.60;11.93;;;;;;;11.48;68.56;97309.72;5070729;28;20740;-80
2022/10/23 01:10:49;;;;;;;17.60;10.73;;;;;;;11.07;70.27;97317.56;5068529;28;20232;-79
2022/10/23 01:13:53;;;;;;;15.47;10.53;;;;;;;10.77;71.90;97305.06;5066083;28;20206;-79
2022/10/23 01:16:39;;;;;;;20.57;12.63;;;;;;;10.68;72.03;97306.28;5066962;28;20676;-79
2022/10/23 01:19:44;;;;;;;16.40;10.80;;;;;;;10.76;71.91;97295.63;5049246;28;20572;-79
2022/10/23 01:23:05;;;;;;;15.77;11.27;;;;;;;10.92;71.58;97292.28;5067489;28;20195;-80
2022/10/23 01:25:52;;;;;;;14.73;11.03;;;;;;;11.12;70.85;97300.06;5085369;28;20287;-79
2022/10/23 01:28:50;;;;;;;16.87;11.37;;;;;;;11.26;70.19;97315.84;5067702;28;20637;-79
2022/10/23 01:31:56;;;;;;;16.47;11.03;;;;;;;11.36;69.74;97305.91;5065643;28;20292;-78
2022/10/23 01:34:36;;;;;;;16.57;10.80;;;;;;;11.25;69.87;97287.41;5071501;28;20233;-79
2022/10/23 01:37:09;;;;;;;17.67;11.20;;;;;;;11.34;69.52;97287.81;5049740;28;20296;-78
2022/10/23 01:39:46;;;;;;;17.73;10.73;;;;;;;11.30;69.69;97296.66;5065612;28;20223;-79
2022/10/23 01:42:35;;;;;;;17.60;11.20;;;;;;;11.43;68.93;97302.13;5066544;28;20831;-79
2022/10/23 01:45:26;;;;;;;12.10;9.57;;;;;;;11.28;69.23;97290.69;5049179;28;20193;-79
2022/10/23 01:47:55;;;;;;;16.97;10.63;;;;;;;11.40;69.42;97308.28;5065770;28;20240;-78
2022/10/23 01:50:24;;;;;;;18.73;11.03;;;;;;;11.41;69.43;97294.44;5049573;28;20272;-78
2022/10/23 01:52:58;;;;;;;15.40;10.23;;;;;;;11.32;69.23;97304.34;5066990;28;20218;-80
2022/10/23 01:55:25;;;;;;;20.63;10.83;;;;;;;11.25;69.74;97279.63;5066961;28;20243;-78
2022/10/23 01:57:55;;;;;;;14.93;10.33;;;;;;;11.24;69.54;97296.94;5052189;28;20674;-79
2022/10/23 02:00:26;;;;;;;14.90;10.43;;;;;;;11.25;69.86;97308.97;5058556;28;20529;-79
2022/10/23 02:02:54;;;;;;;14.53;10.90;;;;;;;11.27;69.69;97309.72;5073570;28;20197;-79
2022/10/23 02:05:30;;;;;;;15.83;10.87;;;;;;;11.21;69.86;97304.81;5067735;28;20622;-79
2022/10/23 02:07:59;;;;;;;18.60;10.87;;;;;;;11.19;70.02;97298.88;5046958;28;20284;-79
2022/10/23 02:10:37;;;;;;;16.90;10.57;;;;;;;11.18;70.57;97302.38;5045574;28;20193;-79
2022/10/23 02:13:08;;;;;;;15.73;9.93;;;;;;;11.20;70.56;97318.72;5047499;28;20193;-79
2022/10/23 02:15:47;;;;;;;15.37;10.17;;;;;;;11.11;70.74;97311.31;5045988;28;20245;-79
2022/10/23 02:18:14;;;;;;;18.70;10.50;;;;;;;11.07;71.07;97309.78;5045507;28;20223;-79
2022/10/23 02:21:05;;;;;;;16.47;10.80;;;;;;;10.94;71.46;97318.97;5045935;28;20199;-78
2022/10/23 02:23:38;;;;;;;14.33;9.47;;;;;;;10.77;71.92;97297.28;5045110;28;20189;-78
2022/10/23 02:26:20;;;;;;;15.73;9.57;;;;;;;10.76;71.36;97304.22;5047082;28;20182;-78
2022/10/23 02:28:57;;;;;;;16.27;10.10;;;;;;;10.67;72.45;97314.97;5045294;28;20625;-78
2022/10/23 02:31:24;;;;;;;16.80;9.43;;;;;;;10.80;72.32;97310.94;5053045;28;20189;-78
2022/10/23 02:33:52;;;;;;;15.40;9.27;;;;;;;10.71;72.20;97321.72;5048877;28;20659;-78
2022/10/23 02:36:19;;;;;;;13.73;9.17;;;;;;;10.72;72.29;97315.63;5045006;28;20191;-78
2022/10/23 02:38:46;;;;;;;13.40;9.43;;;;;;;10.60;72.87;97318.72;5045675;28;20292;-78
2022/10/23 02:41:40;;;;;;;15.57;9.57;;;;;;;10.55;72.89;97321.50;5045122;28;20189;-79
2022/10/23 02:44:38;;;;;;;14.30;9.23;;;;;;;10.61;73.03;97335.97;5045341;28;20194;-79
2022/10/23 02:47:15;;;;;;;19.07;10.00;;;;;;;10.62;73.11;97327.25;5045855;28;20269;-78
2022/10/23 02:50:15;;;;;;;16.13;9.07;;;;;;;10.60;73.54;97342.88;5063538;28;20247;-79
2022/10/23 02:52:46;;;;;;;16.50;9.03;;;;;;;10.58;73.31;97329.16;5066943;28;20186;-78
2022/10/23 02:55:18;;;;;;;16.67;9.87;;;;;;;10.64;73.42;97341.84;5065753;28;20198;-78
2022/10/23 02:58:03;;;;;;;17.63;9.37;;;;;;;10.70;73.22;97345.06;5065954;28;20195;-79
2022/10/23 03:00:34;;;;;;;13.50;8.87;;;;;;;10.85;72.82;97360.84;5065603;28;20244;-79
2022/10/23 03:03:09;;;;;;;13.07;8.50;;;;;;;10.87;72.62;97353.00;5064900;28;20196;-80
2022/10/23 03:05:40;;;;;;;15.37;8.70;;;;;;;10.99;72.09;97348.13;5048890;28;20185;-79
2022/10/23 03:08:09;;;;;;;13.50;8.20;;;;;;;11.02;71.85;97335.06;5065502;28;20235;-79
2022/10/23 03:10:37;;;;;;;12.43;8.73;;;;;;;10.90;72.69;97353.69;5064668;28;20189;-79
2022/10/23 03:13:05;;;;;;;15.93;8.30;;;;;;;11.10;72.45;97360.66;5065461;28;20756;-79
2022/10/23 03:15:39;;;;;;;13.60;8.50;;;;;;;11.22;71.78;97371.34;5064744;28;20189;-79
2022/10/23 03:18:10;;;;;;;13.50;8.40;;;;;;;11.38;71.62;97355.94;5066468;28;20224;-79
2022/10/23 03:20:44;;;;;;;15.57;7.87;;;;;;;11.09;72.30;97364.97;5065002;28;20182;-79
2022/10/23 03:23:13;;;;;;;13.97;8.00;;;;;;;11.27;71.53;97373.72;5048168;28;20198;-80
2022/10/23 03:25:41;;;;;;;14.07;8.07;;;;;;;11.05;71.30;97336.66;5048628;28;20249;-81
2022/10/23 03:28:19;;;;;;;13.47;9.03;;;;;;;11.37;71.06;97365.47;5033851;28;20634;-80
2022/10/23 03:30:46;;;;;;;12.97;8.30;;;;;;;11.34;71.51;97373.38;5070693;28;20569;-79
2022/10/23 03:33:13;;;;;;;16.93;8.47;;;;;;;11.42;70.96;97379.06;5064504;28;20206;-79
2022/10/23 03:35:40;;;;;;;14.77;8.47;;;;;;;11.46;70.42;97366.81;5066017;28;20223;-80
2022/10/23 03:38:08;;;;;;;11.57;8.00;;;;;;;11.54;70.31;97362.13;5066101;28;20177;-80
2022/10/23 03:40:35;;;;;;;11.07;7.60;;;;;;;11.58;70.62;97368.84;5066264;28;20225;-80
2022/10/23 03:43:02;;;;;;;12.47;6.87;;;;;;;11.59;69.80;97346.38;5068904;28;20192;-79
2022/10/23 03:45:29;;;;;;;17.60;8.67;;;;;;;11.64;68.99;97336.63;5067963;28;20670;-79
2022/10/23 03:47:56;;;;;;;10.03;6.50;;;;;;;11.78;68.87;97348.09;5070342;28;20615;-79
2022/10/23 03:50:24;;;;;;;14.73;7.57;;;;;;;11.88;69.20;97358.91;5067626;28;20191;-78
2022/10/23 03:52:52;;;;;;;12.70;7.73;;;;;;;11.94;68.50;97341.31;5068781;28;20188;-78
2022/10/23 03:55:20;;;;;;;15.73;8.67;;;;;;;12.07;67.89;97341.56;5069322;28;20212;-78
2022/10/23 03:57:46;;;;;;;10.67;6.93;;;;;;;12.15;68.31;97340.31;5068009;28;20184;-78
2022/10/23 04:00:14;;;;;;;13.50;8.30;;;;;;;12.14;67.89;97348.13;5068373;28;20221;-79
2022/10/23 04:02:45;;;;;;;12.30;9.47;;;;;;;11.98;68.49;97331.59;5067696;28;20214;-79
2022/10/23 04:05:13;;;;;;;16.90;8.77;;;;;;;12.09;68.50;97350.13;5068416;28;20693;-78
2022/10/23 04:07:49;;;;;;;14.53;8.23;;;;;;;12.06;68.86;97345.06;5067563;28;20275;-79
2022/10/23 04:10:17;;;;;;;10.90;7.60;;;;;;;11.95;67.81;97337.78;5069361;28;20747;-81
2022/10/23 04:12:44;;;;;;;10.47;7.17;;;;;;;12.00;67.97;97340.16;5068011;28;20189;-80
2022/10/23 04:15:11;;;;;;;10.80;7.17;;;;;;;12.10;67.17;97347.44;5067653;28;20198;-81
2022/10/23 04:17:41;;;;;;;12.27;7.80;;;;;;;12.09;67.79;97332.81;5068046;28;20282;-80
2022/10/23 04:20:09;;;;;;;10.60;7.47;;;;;;;12.13;67.11;97325.69;5067198;28;20233;-80
2022/10/23 04:22:37;;;;;;;13.23;8.00;;;;;;;12.22;67.20;97344.28;5069497;28;20600;-80
2022/10/23 04:25:04;;;;;;;14.90;7.57;;;;;;;12.23;66.66;97343.38;5067337;28;20186;-80
2022/10/23 04:27:33;;;;;;;14.47;8.53;;;;;;;12.14;67.66;97337.75;5056283;28;20706;-79
2022/10/23 04:30:02;;;;;;;16.47;9.13;;;;;;;12.21;66.88;97344.34;5067508;28;20195;-78
2022/10/23 04:32:30;;;;;;;13.93;7.17;;;;;;;12.31;65.73;97327.41;5067354;28;20223;-79
2022/10/23 04:34:57;;;;;;;20.97;8.73;;;;;;;12.45;66.18;97331.94;5068786;28;20221;-78
2022/10/23 04:37:25;;;;;;;12.77;8.43;;;;;;;12.54;65.67;97340.16;5049769;28;20190;-79
2022/10/23 04:39:52;;;;;;;10.23;6.13;;;;;;;12.73;63.87;97320.16;5067724;28;20236;-80
2022/10/23 04:42:19;;;;;;;11.40;6.90;;;;;;;12.99;63.23;97345.66;5050844;28;20195;-80
2022/10/23 04:44:46;;;;;;;12.23;6.83;;;;;;;13.25;61.89;97346.13;5068680;28;20191;-81
2022/10/23 04:47:13;;;;;;;11.77;6.53;;;;;;;13.46;60.77;97339.81;5066891;28;20197;-80
2022/10/23 04:49:55;;;;;;;11.63;5.27;;;;;;;14.81;56.28;97339.25;5066885;28;20215;-80
2022/10/23 04:52:56;;;;;;;9.17;4.37;;;;;;;16.76;51.14;97359.31;5068560;28;20288;-79
2022/10/23 04:55:56;;;;;;;13.57;4.43;;;;;;;17.72;48.67;97353.72;5068083;28;20193;-80
2022/10/23 04:58:34;;;;;;;12.83;4.43;;;;;;;17.95;47.96;97365.22;5066745;28;20190;-80
2022/10/23 05:01:01;;;;;;;11.20;4.67;;;;;;;17.75;48.35;97364.81;5067298;28;20190;-80
2022/10/23 05:03:28;;;;;;;9.87;4.67;;;;;;;17.55;48.74;97365.34;5066477;28;20225;-80
2022/10/23 05:05:56;;;;;;;11.80;5.70;;;;;;;17.56;49.29;97360.94;5067858;28;20621;-79
2022/10/23 05:08:30;;;;;;;13.73;5.33;;;;;;;17.52;49.18;97336.75;5050360;28;20217;-80
2022/10/23 05:11:16;;;;;;;10.57;5.13;;;;;;;17.64;49.69;97328.03;5068534;28;20189;-80
2022/10/23 05:13:46;;;;;;;9.73;5.53;;;;;;;18.09;50.24;97370.34;5066974;28;20195;-80
2022/10/23 05:16:34;;;;;;;13.77;4.53;;;;;;;18.34;48.92;97386.00;5067588;28;20631;-79
2022/10/23 05:19:04;;;;;;;10.73;4.77;;;;;;;18.43;48.67;97395.81;5067725;28;20272;-79
2022/10/23 05:21:34;;;;;;;10.73;5.47;;;;;;;18.50;49.08;97386.63;5033809;28;20222;-79
2022/10/23 05:24:04;;;;;;;9.27;4.33;;;;;;;18.53;49.08;97391.63;5068634;28;20186;-79
2022/10/23 05:26:31;;;;;;;13.77;4.70;;;;;;;18.71;49.43;97392.94;5070240;28;20186;-79
2022/10/23 05:29:05;;;;;;;13.13;4.63;;;;;;;18.85;49.18;97395.41;5050015;28;20203;-79
2022/10/23 05:31:34;;;;;;;9.57;4.40;;;;;;;19.09;48.13;97390.13;5034179;28;20616;-79
2022/10/23 05:34:10;;;;;;;12.00;4.70;;;;;;;19.31;47.74;97377.91;5034536;28;20285;-79
2022/10/23 05:36:44;;;;;;;9.10;4.50;;;;;;;19.41;47.43;97391.22;5067091;28;20605;-78
2022/10/23 05:39:13;;;;;;;8.27;4.13;;;;;;;19.52;47.29;97403.53;5050547;28;20266;-79
2022/10/23 05:41:48;;;;;;;10.93;4.43;;;;;;;19.47;47.68;97404.72;5075735;28;20199;-77
2022/10/23 05:44:21;;;;;;;10.20;4.37;;;;;;;19.44;47.80;97401.47;5070651;28;20250;-78
2022/10/23 05:47:06;;;;;;;9.47;4.43;;;;;;;19.35;48.45;97395.13;5070152;28;20192;-78
2022/10/23 05:49:52;;;;;;;9.67;4.60;;;;;;;19.40;48.75;97393.00;5067900;28;20659;-79
2022/10/23 05:52:48;;;;;;;7.53;4.73;;;;;;;19.33;48.98;97396.19;5059381;28;20215;-80
2022/10/23 05:55:47;;;;;;;8.10;3.93;;;;;;;19.57;49.70;97401.41;5065183;28;20192;-80
2022/10/23 05:58:29;;;;;;;8.10;3.70;;;;;;;19.67;49.72;97421.59;5065622;28;20212;-79
2022/10/23 06:01:12;;;;;;;13.53;3.80;;;;;;;19.82;49.40;97427.50;5074019;28;20224;-80
2022/10/23 06:04:04;;;;;;;6.70;3.13;;;;;;;20.01;48.45;97422.50;5070026;28;20202;-79
2022/10/23 06:06:58;;;;;;;8.10;4.10;;;;;;;20.07;49.14;97437.81;5087218;28;20210;-80
2022/10/23 06:09:25;;;;;;;7.17;3.77;;;;;;;20.04;48.59;97436.25;5069514;28;20187;-80
2022/10/23 06:11:56;;;;;;;8.53;3.43;;;;;;;20.21;48.66;97445.50;5060962;28;20229;-80
2022/10/23 06:14:23;;;;;;;7.67;4.03;;;;;;;20.23;48.28;97451.47;5072084;28;20259;-77
2022/10/23 06:16:51;;;;;;;8.03;3.33;;;;;;;20.27;48.31;97434.50;5080203;28;20320;-79
2022/10/23 06:19:19;;;;;;;7.67;3.40;;;;;;;20.35;48.55;97454.91;5080604;28;20651;-80
2022/10/23 06:21:50;;;;;;;8.40;3.70;;;;;;;20.36;48.89;97467.94;5056512;28;20204;-78
2022/10/23 06:24:18;;;;;;;7.03;3.23;;;;;;;20.53;48.51;97461.38;5070911;28;20203;-78
2022/10/23 06:26:54;;;;;;;12.30;3.57;;;;;;;20.56;48.72;97458.50;5071163;28;20650;-79
2022/10/23 06:29:40;;;;;;;7.07;3.30;;;;;;;20.55;48.94;97455.03;5069086;28;20193;-77
2022/10/23 06:32:07;;;;;;;7.17;3.00;;;;;;;20.45;49.20;97466.41;5069010;28;20696;-80
2022/10/23 06:34:35;;;;;;;5.30;3.77;;;;;;;20.33;49.06;97439.25;5066587;28;20221;-80
2022/10/23 06:37:05;;;;;;;8.40;3.53;;;;;;;20.59;49.09;97474.88;5067065;28;20226;-81
2022/10/23 06:39:48;;;;;;;6.23;3.17;;;;;;;20.52;49.20;97463.19;5068696;28;20227;-78
2022/10/23 06:42:18;;;;;;;4.37;2.93;;;;;;;20.62;49.03;97465.91;5064849;28;20199;-79
2022/10/23 06:44:54;;;;;;;4.90;2.90;;;;;;;20.52;49.28;97478.13;5046173;28;20275;-78
2022/10/23 06:47:44;;;;;;;5.07;3.00;;;;;;;20.60;49.39;97473.94;5044171;28;20204;-78
2022/10/23 06:50:47;;;;;;;4.70;2.77;;;;;;;20.77;48.96;97486.56;5045091;28;20706;-78
2022/10/23 06:53:23;;;;;;;4.50;3.33;;;;;;;20.75;49.04;97506.94;5045129;28;20202;-78
2022/10/23 06:56:00;;;;;;;4.10;3.10;;;;;;;20.75;49.06;97498.22;5044434;28;20189;-79
2022/10/23 06:58:27;;;;;;;3.50;2.50;;;;;;;20.75;48.69;97490.31;5028863;28;20189;-78
2022/10/23 07:01:05;;;;;;;6.60;2.60;;;;;;;20.71;48.93;97481.81;5033297;28;20233;-79
2022/10/23 07:03:33;;;;;;;5.93;2.97;;;;;;;20.81;48.85;97490.66;5051729;28;20932;-78
2022/10/23 07:06:06;;;;;;;3.37;2.20;;;;;;;20.83;48.92;97501.91;5047478;28;20197;-79
2022/10/23 07:08:35;;;;;;;4.50;2.40;;;;;;;20.85;48.58;97493.91;5045399;28;20245;-79
2022/10/23 07:11:11;;;;;;;9.33;2.67;;;;;;;20.93;48.30;97496.75;5045489;28;20566;-78
2022/10/23 07:13:39;;;;;;;3.67;2.07;;;;;;;20.92;48.08;97490.63;5044314;28;20741;-78
2022/10/23 07:16:16;;;;;;;2.00;1.77;;;;;;;20.86;47.46;97480.59;5046640;28;20200;-79
2022/10/23 07:18:44;;;;;;;3.53;2.00;;;;;;;20.92;47.61;97501.16;5048419;28;20568;-78
2022/10/23 07:21:38;;;;;;;2.57;2.03;;;;;;;21.01;47.66;97496.97;5051643;28;20271;-77
2022/10/23 07:24:35;;;;;;;3.33;2.00;;;;;;;21.06;47.48;97492.22;5049108;28;20194;-78
2022/10/23 07:27:14;;;;;;;5.60;2.27;;;;;;;21.02;47.09;97502.13;5048481;28;20196;-80
2022/10/23 07:29:43;;;;;;;4.87;2.03;;;;;;;20.89;46.76;97480.38;5049317;28;20222;-80
2022/10/23 07:32:10;;;;;;;3.37;1.70;;;;;;;21.14;46.61;97502.13;5048131;28;20270;-78
2022/10/23 07:34:57;;;;;;;3.47;2.20;;;;;;;21.13;47.07;97487.25;5037430;28;20282;-79
2022/10/23 07:37:29;;;;;;;6.57;2.00;;;;;;;21.13;46.53;97489.91;5048489;28;20187;-78
2022/10/23 07:39:59;;;;;;;4.37;2.00;;;;;;;21.26;46.49;97490.59;5047439;28;20252;-78
2022/10/23 07:42:26;;;;;;;3.67;1.77;;;;;;;21.27;46.49;97490.44;5048176;28;20634;-79
2022/10/23 07:44:53;;;;;;;3.50;2.10;;;;;;;21.36;46.31;97489.72;5047651;28;20209;-79
2022/10/23 07:47:21;;;;;;;3.00;1.70;;;;;;;21.58;46.02;97488.78;5047677;28;20190;-77
2022/10/23 07:49:50;;;;;;;2.23;1.53;;;;;;;21.62;45.68;97480.50;5047528;28;20218;-79
2022/10/23 07:52:19;;;;;;;8.10;2.27;;;;;;;21.56;45.57;97485.44;5048680;28;20195;-79
2022/10/23 07:55:09;;;;;;;4.50;1.53;;;;;;;21.61;45.93;97509.63;5051530;28;20331;-77
2022/10/23 07:57:40;;;;;;;2.93;1.50;;;;;;;21.67;45.60;97515.22;5031582;28;20195;-78
2022/10/23 08:00:20;;;;;;;3.57;1.60;;;;;;;21.57;45.50;97487.13;5030770;28;20345;-78
2022/10/23 08:02:55;;;;;;;7.47;1.70;;;;;;;21.52;45.37;97502.47;5047635;28;20559;-78
2022/10/23 08:05:22;;;;;;;1.50;1.40;;;;;;;21.55;45.61;97489.03;5047107;28;20641;-78
2022/10/23 08:07:56;;;;;;;3.10;1.30;;;;;;;21.52;45.32;97505.09;5047817;28;20184;-79
2022/10/23 08:10:23;;;;;;;6.13;1.40;;;;;;;21.40;45.89;97503.47;5046811;28;20275;-79
2022/10/23 08:12:51;;;;;;;4.67;1.23;;;;;;;21.50;45.38;97534.22;5047515;28;20187;-78
2022/10/23 08:15:24;;;;;;;3.20;1.23;;;;;;;21.42;45.76;97505.03;5047298;28;20321;-78
2022/10/23 08:17:57;;;;;;;3.53;1.33;;;;;;;21.37;45.36;97504.53;5047367;28;20210;-79
2022/10/23 08:20:47;;;;;;;4.57;1.27;;;;;;;21.39;45.64;97486.81;5048549;28;20219;-78
2022/10/23 08:23:17;;;;;;;7.47;1.67;;;;;;;21.49;44.83;97522.03;5031480;28;20183;-79
2022/10/23 08:25:45;;;;;;;4.07;1.27;;;;;;;21.53;45.33;97515.53;5047732;28;20211;-79
2022/10/23 08:28:16;;;;;;;1.20;0.90;;;;;;;21.46;45.19;97513.50;5046414;28;20688;-79
2022/10/23 08:30:53;;;;;;;3.37;1.10;;;;;;;21.34;45.33;97467.09;5047081;28;20197;-79
2022/10/23 08:33:22;;;;;;;5.70;1.10;;;;;;;21.56;44.74;97511.78;5047495;28;20219;-80
2022/10/23 08:35:49;;;;;;;4.03;1.23;;;;;;;21.58;44.27;97491.41;5046449;28;20226;-78
2022/10/23 08:38:29;;;;;;;2.63;1.10;;;;;;;21.53;44.40;97507.63;5048885;28;20209;-78
2022/10/23 08:40:56;;;;;;;4.97;1.20;;;;;;;21.62;44.16;97484.91;5029550;28;20591;-79
2022/10/23 08:43:47;;;;;;;5.43;1.20;;;;;;;21.79;44.44;97503.66;5047984;28;20220;-79
2022/10/23 08:46:36;;;;;;;3.23;1.30;;;;;;;21.99;43.28;97499.38;5032447;28;20187;-79
2022/10/23 08:49:54;;;;;;;1.83;1.10;;;;;;;21.94;43.02;97496.31;5053671;28;20199;-78
2022/10/23 08:52:51;;;;;;;1.33;0.90;;;;;;;21.99;42.44;97504.66;5046902;28;20688;-79
2022/10/23 08:55:34;;;;;;;2.70;1.10;;;;;;;22.14;42.06;97507.78;5046838;28;20227;-78
2022/10/23 08:58:44;;;;;;;1.57;0.83;;;;;;;22.17;41.30;97504.91;5047188;28;20229;-78
2022/10/23 09:01:43;;;;;;;3.77;1.07;;;;;;;22.13;41.00;97512.25;5045995;28;20231;-79
2022/10/23 09:04:13;;;;;;;10.43;1.60;;;;;;;22.02;40.03;97480.66;5047697;28;20234;-78
2022/10/23 09:07:14;;;;;;;5.90;1.30;;;;;;;22.17;38.86;97518.09;5045353;28;20630;-79
2022/10/23 09:10:01;;;;;;;1.63;1.23;;;;;;;21.53;38.88;97409.25;5047667;28;20249;-78
2022/10/23 09:12:30;;;;;;;4.20;0.97;;;;;;;21.99;38.39;97506.47;5047707;28;20194;-78
2022/10/23 09:15:27;;;;;;;1.27;0.70;;;;;;;22.08;37.40;97522.34;5045907;28;20197;-79
2022/10/23 09:18:00;;;;;;;1.87;0.77;;;;;;;22.00;38.71;97514.25;5049197;28;20183;-78
2022/10/23 09:20:33;;;;;;;2.40;1.10;;;;;;;21.97;38.90;97522.41;5047915;28;20221;-78
2022/10/23 09:23:22;;;;;;;5.27;1.00;;;;;;;22.00;38.84;97519.53;5046235;28;20211;-78
2022/10/23 09:25:55;;;;;;;5.37;1.20;;;;;;;21.94;38.35;97500.72;5047855;28;20222;-78
2022/10/23 09:28:32;;;;;;;2.30;1.13;;;;;;;22.00;38.22;97516.88;5047378;28;20307;-78
2022/10/23 09:31:11;;;;;;;4.00;1.63;;;;;;;21.97;38.63;97505.78;5046332;28;20192;-79
2022/10/23 09:33:40;;;;;;;1.97;0.90;;;;;;;21.95;37.82;97542.00;5046803;28;20208;-79
2022/10/23 09:36:11;;;;;;;9.13;1.60;;;;;;;22.06;37.60;97515.53;5047230;28;20292;-79
2022/10/23 09:38:44;;;;;;;2.90;0.90;;;;;;;22.18;37.35;97527.69;5046625;28;20188;-78
2022/10/23 09:41:27;;;;;;;4.80;1.50;;;;;;;22.06;37.64;97553.31;5046926;28;20242;-79
2022/10/23 09:44:21;;;;;;;3.10;1.50;;;;;;;22.14;37.44;97523.63;5047727;28;20212;-79
2022/10/23 09:46:52;;;;;;;3.60;1.20;;;;;;;22.20;36.47;97492.28;5043465;28;20291;-79
2022/10/23 09:49:28;;;;;;;3.20;1.17;;;;;;;22.36;37.28;97521.69;5047261;28;20191;-79
2022/10/23 09:52:01;;;;;;;4.23;1.20;;;;;;;22.38;36.69;97527.66;5046977;28;20186;-78
2022/10/23 09:54:36;;;;;;;1.67;1.23;;;;;;;22.50;36.60;97521.31;5046410;28;20574;-79
2022/10/23 09:57:19;;;;;;;3.57;1.10;;;;;;;22.38;37.00;97525.03;5047061;28;20685;-79
2022/10/23 09:59:52;;;;;;;1.50;1.40;;;;;;;22.17;37.47;97516.31;5046468;28;20195;-79
2022/10/23 10:02:27;;;;;;;1.83;1.37;;;;;;;22.16;38.21;97500.59;5044760;28;20257;-79
2022/10/23 10:05:25;;;;;;;3.83;1.10;;;;;;;22.33;35.80;97513.19;5045655;28;20691;-78
2022/10/23 10:08:18;;;;;;;1.63;1.17;;;;;;;22.45;36.08;97502.44;5044374;28;20191;-78
2022/10/23 10:11:11;;;;;;;2.40;1.30;;;;;;;22.38;36.01;97501.25;5045413;28;20198;-78
2022/10/23 10:13:57;;;;;;;2.63;1.40;;;;;;;22.60;35.53;97487.09;5046906;28;20283;-78
2022/10/23 10:16:43;;;;;;;3.73;1.77;;;;;;;22.60;36.53;97495.88;5044822;28;20290;-78
2022/10/23 10:19:47;;;;;;;5.23;1.50;;;;;;;22.39;36.99;97497.69;5051828;28;20284;-77
2022/10/23 10:22:45;;;;;;;4.57;1.40;;;;;;;22.50;35.98;97497.56;5046564;28;20222;-78
2022/10/23 10:25:37;;;;;;;4.47;1.77;;;;;;;22.46;35.46;97498.81;5045870;28;20300;-78
2022/10/23 10:28:23;;;;;;;2.80;1.40;;;;;;;22.56;36.33;97507.63;5045138;28;20197;-78
2022/10/23 10:31:03;;;;;;;1.70;1.40;;;;;;;22.50;36.63;97476.44;5045374;28;20204;-78
2022/10/23 10:33:36;;;;;;;3.03;1.50;;;;;;;22.54;36.48;97480.53;5044764;28;20180;-79
2022/10/23 10:36:09;;;;;;;1.57;1.37;;;;;;;22.71;34.77;97478.25;5046583;28;20255;-78
2022/10/23 10:38:46;;;;;;;2.70;1.50;;;;;;;22.87;35.48;97487.34;5044197;28;20219;-78
2022/10/23 10:41:37;;;;;;;1.83;1.40;;;;;;;22.51;36.49;97486.06;5046020;28;20233;-79
2022/10/23 10:44:28;;;;;;;1.80;1.30;;;;;;;22.49;35.85;97466.88;5045077;28;20261;-79
2022/10/23 10:47:04;;;;;;;1.17;1.07;;;;;;;22.61;35.54;97473.75;5044437;28;20199;-78
2022/10/23 10:50:17;;;;;;;2.07;1.33;;;;;;;22.66;35.13;97486.56;5045663;28;20197;-78
2022/10/23 10:53:32;;;;;;;3.57;1.40;;;;;;;22.72;35.20;97456.13;5067578;28;20244;-77
2022/10/23 10:56:02;;;;;;;11.40;1.60;;;;;;;22.93;35.79;97454.25;5067829;28;20647;-77
2022/10/23 10:59:02;;;;;;;1.40;1.30;;;;;;;22.87;35.81;97460.06;5057561;28;20246;-79
2022/10/23 11:01:36;;;;;;;2.63;1.27;;;;;;;22.89;35.31;97453.69;5060683;28;20252;-80
2022/10/23 11:04:44;;;;;;;4.83;1.70;;;;;;;22.85;35.71;97460.22;5050493;28;20961;-77
2022/10/23 11:07:15;;;;;;;5.20;1.20;;;;;;;22.81;34.97;97479.09;5049496;28;20208;-78
2022/10/23 11:09:43;;;;;;;2.70;1.47;;;;;;;22.85;34.99;97427.69;5049089;28;20236;-79
2022/10/23 11:12:22;;;;;;;4.83;1.60;;;;;;;22.63;34.67;97423.44;5048837;28;20196;-78
2022/10/23 11:14:50;;;;;;;3.50;1.40;;;;;;;22.87;35.26;97433.66;5050524;28;20738;-79
2022/10/23 11:17:24;;;;;;;6.77;1.63;;;;;;;22.84;35.17;97449.75;5051807;28;20246;-78
2022/10/23 11:20:23;;;;;;;2.37;1.33;;;;;;;22.76;34.67;97424.03;5050633;28;20187;-79
2022/10/23 11:23:11;;;;;;;6.30;2.00;;;;;;;22.94;34.06;97426.84;5057790;28;20294;-78
2022/10/23 11:25:48;;;;;;;5.43;1.63;;;;;;;22.92;34.50;97452.56;5049374;28;20765;-79
2022/10/23 11:28:36;;;;;;;5.27;1.70;;;;;;;22.94;34.12;97432.13;5050039;28;20190;-79
2022/10/23 11:31:22;;;;;;;3.70;1.67;;;;;;;22.97;34.24;97429.22;5048241;28;20191;-79
2022/10/23 11:34:20;;;;;;;3.77;1.33;;;;;;;22.93;34.41;97410.19;5049860;28;20197;-78
2022/10/23 11:36:55;;;;;;;4.97;1.40;;;;;;;23.01;34.59;97414.78;5048383;28;20197;-78
2022/10/23 11:39:26;;;;;;;1.90;1.10;;;;;;;23.07;34.38;97414.22;5049143;28;20219;-78
2022/10/23 11:42:13;;;;;;;5.70;1.63;;;;;;;22.91;34.92;97403.34;5032137;28;20926;-78
2022/10/23 11:44:44;;;;;;;3.17;1.60;;;;;;;22.93;35.41;97427.84;5049482;28;20243;-78
2022/10/23 11:47:28;;;;;;;4.13;1.33;;;;;;;23.01;34.44;97409.50;5047650;28;20607;-78
2022/10/23 11:50:05;;;;;;;4.80;1.33;;;;;;;23.07;34.64;97416.84;5049751;28;20192;-79
2022/10/23 11:52:35;;;;;;;3.53;1.40;;;;;;;22.84;34.35;97396.94;5047509;28;20200;-79
2022/10/23 11:55:21;;;;;;;1.90;1.00;;;;;;;23.02;34.22;97411.16;5047874;28;20199;-79
2022/10/23 11:58:09;;;;;;;2.77;1.20;;;;;;;22.78;34.62;97403.63;5049448;28;20210;-78
2022/10/23 12:00:50;;;;;;;2.83;1.40;;;;;;;22.92;34.32;97432.28;5047360;28;20188;-78
2022/10/23 12:03:41;;;;;;;3.80;1.20;;;;;;;22.88;34.31;97416.81;5047490;28;20189;-78
2022/10/23 12:06:28;;;;;;;2.57;1.10;;;;;;;22.94;34.72;97418.91;5048944;28;20198;-79
2022/10/23 12:09:01;;;;;;;6.70;1.97;;;;;;;;;;5048932;28;20200;-78
2022/10/23 12:12:00;;;;;;;4.17;1.30;;;;;;;23.01;34.78;97423.53;5048012;28;20206;-78
2022/10/23 12:14:31;;;;;;;2.33;1.53;;;;;;;22.85;34.87;97419.75;5049139;28;20686;-78